sensor_id;sensor_type;location;lat;lon;timestamp;P1;durP1;ratioP1;P2;durP2;ratioP2
75854;SDS011;64502;59.976;30.316;2022-11-15T00:00:41;7.63;;;3.22;;
75854;SDS011;64502;59.976;30.316;2022-11-15T00:03:06;6.93;;;3.92;;
75854;SDS011;64502;59.976;30.316;2022-11-15T00:05:34;9.50;;;3.95;;
75854;SDS011;64502;59.976;30.316;2022-11-15T00:08:00;8.18;;;3.67;;
75854;SDS011;64502;59.976;30.316;2022-11-15T00:10:26;8.00;;;3.83;;
75854;SDS011;64502;59.976;30.316;2022-11-15T00:12:51;6.40;;;2.85;;
75854;SDS011;64502;59.976;30.316;2022-11-15T00:15:16;6.95;;;3.17;;
75854;SDS011;64502;59.976;30.316;2022-11-15T00:17:42;9.45;;;4.07;;
75854;SDS011;64502;59.976;30.316;2022-11-15T00:20:08;7.68;;;3.33;;
75854;SDS011;64502;59.976;30.316;2022-11-15T00:22:34;6.65;;;3.53;;
75854;SDS011;64502;59.976;30.316;2022-11-15T00:24:59;9.35;;;4.03;;
75854;SDS011;64502;59.976;30.316;2022-11-15T00:27:24;6.25;;;3.08;;
75854;SDS011;64502;59.976;30.316;2022-11-15T00:29:50;7.25;;;3.30;;
75854;SDS011;64502;59.976;30.316;2022-11-15T00:32:15;7.35;;;3.70;;
75854;SDS011;64502;59.976;30.316;2022-11-15T00:34:41;8.73;;;3.90;;
75854;SDS011;64502;59.976;30.316;2022-11-15T00:37:06;8.73;;;4.03;;
75854;SDS011;64502;59.976;30.316;2022-11-15T00:39:32;8.30;;;3.70;;
75854;SDS011;64502;59.976;30.316;2022-11-15T00:41:57;7.95;;;3.65;;
75854;SDS011;64502;59.976;30.316;2022-11-15T00:44:23;9.50;;;3.42;;
75854;SDS011;64502;59.976;30.316;2022-11-15T00:46:48;9.50;;;4.32;;
75854;SDS011;64502;59.976;30.316;2022-11-15T00:49:14;9.23;;;3.97;;
75854;SDS011;64502;59.976;30.316;2022-11-15T00:51:39;8.23;;;3.80;;
75854;SDS011;64502;59.976;30.316;2022-11-15T00:54:05;7.70;;;3.72;;
75854;SDS011;64502;59.976;30.316;2022-11-15T00:56:30;7.85;;;3.30;;
75854;SDS011;64502;59.976;30.316;2022-11-15T00:58:56;10.77;;;4.35;;
75854;SDS011;64502;59.976;30.316;2022-11-15T01:01:21;9.93;;;4.20;;
75854;SDS011;64502;59.976;30.316;2022-11-15T01:03:47;10.15;;;4.22;;
75854;SDS011;64502;59.976;30.316;2022-11-15T01:06:12;8.85;;;4.03;;
75854;SDS011;64502;59.976;30.316;2022-11-15T01:08:41;11.27;;;4.60;;
75854;SDS011;64502;59.976;30.316;2022-11-15T01:11:07;8.40;;;3.67;;
75854;SDS011;64502;59.976;30.316;2022-11-15T01:13:35;9.52;;;4.00;;
75854;SDS011;64502;59.976;30.316;2022-11-15T01:16:12;9.18;;;4.05;;
75854;SDS011;64502;59.976;30.316;2022-11-15T01:18:39;8.70;;;3.58;;
75854;SDS011;64502;59.976;30.316;2022-11-15T01:21:06;7.65;;;3.92;;
75854;SDS011;64502;59.976;30.316;2022-11-15T01:23:36;5.43;;;2.80;;
75854;SDS011;64502;59.976;30.316;2022-11-15T01:26:04;6.30;;;3.08;;
75854;SDS011;64502;59.976;30.316;2022-11-15T01:28:32;7.88;;;3.58;;
75854;SDS011;64502;59.976;30.316;2022-11-15T01:30:59;5.75;;;3.05;;
75854;SDS011;64502;59.976;30.316;2022-11-15T01:33:26;9.90;;;3.55;;
75854;SDS011;64502;59.976;30.316;2022-11-15T01:35:53;8.35;;;3.38;;
75854;SDS011;64502;59.976;30.316;2022-11-15T01:38:18;5.72;;;2.88;;
75854;SDS011;64502;59.976;30.316;2022-11-15T01:40:44;6.15;;;2.97;;
75854;SDS011;64502;59.976;30.316;2022-11-15T01:45:59;7.75;;;3.13;;
75854;SDS011;64502;59.976;30.316;2022-11-15T01:48:33;6.80;;;3.40;;
75854;SDS011;64502;59.976;30.316;2022-11-15T01:51:00;7.47;;;3.30;;
75854;SDS011;64502;59.976;30.316;2022-11-15T01:53:27;9.95;;;3.53;;
75854;SDS011;64502;59.976;30.316;2022-11-15T01:55:55;7.45;;;3.70;;
75854;SDS011;64502;59.976;30.316;2022-11-15T01:58:21;7.57;;;3.58;;
75854;SDS011;64502;59.976;30.316;2022-11-15T02:00:46;6.00;;;3.08;;
75854;SDS011;64502;59.976;30.316;2022-11-15T02:03:14;7.03;;;3.40;;
75854;SDS011;64502;59.976;30.316;2022-11-15T02:05:40;8.10;;;2.80;;
75854;SDS011;64502;59.976;30.316;2022-11-15T02:08:06;8.27;;;3.53;;
75854;SDS011;64502;59.976;30.316;2022-11-15T02:10:44;8.02;;;3.47;;
75854;SDS011;64502;59.976;30.316;2022-11-15T02:13:16;6.05;;;2.67;;
75854;SDS011;64502;59.976;30.316;2022-11-15T02:15:49;8.63;;;3.83;;
75854;SDS011;64502;59.976;30.316;2022-11-15T02:18:21;5.57;;;2.75;;
75854;SDS011;64502;59.976;30.316;2022-11-15T02:32:16;6.25;;;2.55;;
75854;SDS011;64502;59.976;30.316;2022-11-15T02:39:51;5.38;;;2.42;;
75854;SDS011;64502;59.976;30.316;2022-11-15T02:42:26;5.50;;;2.33;;
75854;SDS011;64502;59.976;30.316;2022-11-15T02:45:13;4.60;;;2.25;;
75854;SDS011;64502;59.976;30.316;2022-11-15T02:47:44;4.70;;;2.17;;
75854;SDS011;64502;59.976;30.316;2022-11-15T02:50:16;4.05;;;1.95;;
75854;SDS011;64502;59.976;30.316;2022-11-15T02:52:47;5.90;;;2.22;;
75854;SDS011;64502;59.976;30.316;2022-11-15T03:04:22;5.20;;;2.15;;
75854;SDS011;64502;59.976;30.316;2022-11-15T03:06:46;5.28;;;1.85;;
75854;SDS011;64502;59.976;30.316;2022-11-15T03:11:48;4.20;;;1.70;;
75854;SDS011;64502;59.976;30.316;2022-11-15T03:14:23;6.03;;;2.03;;
75854;SDS011;64502;59.976;30.316;2022-11-15T03:19:46;5.57;;;2.25;;
75854;SDS011;64502;59.976;30.316;2022-11-15T03:22:16;3.72;;;1.88;;
75854;SDS011;64502;59.976;30.316;2022-11-15T03:24:45;4.32;;;2.00;;
75854;SDS011;64502;59.976;30.316;2022-11-15T03:27:15;3.28;;;1.70;;
75854;SDS011;64502;59.976;30.316;2022-11-15T03:29:46;3.67;;;1.40;;
75854;SDS011;64502;59.976;30.316;2022-11-15T03:32:17;4.20;;;1.85;;
75854;SDS011;64502;59.976;30.316;2022-11-15T03:34:53;4.80;;;1.70;;
75854;SDS011;64502;59.976;30.316;2022-11-15T03:37:29;3.47;;;1.67;;
75854;SDS011;64502;59.976;30.316;2022-11-15T03:39:59;4.32;;;1.50;;
75854;SDS011;64502;59.976;30.316;2022-11-15T03:45:13;3.58;;;1.05;;
75854;SDS011;64502;59.976;30.316;2022-11-15T03:47:49;3.05;;;1.02;;
75854;SDS011;64502;59.976;30.316;2022-11-15T03:50:20;3.55;;;1.50;;
75854;SDS011;64502;59.976;30.316;2022-11-15T03:52:48;3.15;;;1.58;;
75854;SDS011;64502;59.976;30.316;2022-11-15T03:55:16;4.28;;;1.58;;
75854;SDS011;64502;59.976;30.316;2022-11-15T03:57:43;3.05;;;1.30;;
75854;SDS011;64502;59.976;30.316;2022-11-15T04:00:09;3.20;;;1.35;;
75854;SDS011;64502;59.976;30.316;2022-11-15T04:02:36;3.13;;;1.25;;
75854;SDS011;64502;59.976;30.316;2022-11-15T04:05:01;3.28;;;1.10;;
75854;SDS011;64502;59.976;30.316;2022-11-15T04:07:27;4.05;;;1.50;;
75854;SDS011;64502;59.976;30.316;2022-11-15T04:13:15;4.10;;;1.48;;
75854;SDS011;64502;59.976;30.316;2022-11-15T04:15:59;3.83;;;1.60;;
75854;SDS011;64502;59.976;30.316;2022-11-15T04:18:25;3.90;;;1.83;;
75854;SDS011;64502;59.976;30.316;2022-11-15T04:20:50;4.03;;;1.65;;
75854;SDS011;64502;59.976;30.316;2022-11-15T04:23:34;4.63;;;1.73;;
75854;SDS011;64502;59.976;30.316;2022-11-15T04:43:07;3.25;;;1.27;;
75854;SDS011;64502;59.976;30.316;2022-11-15T04:45:33;5.35;;;1.85;;
75854;SDS011;64502;59.976;30.316;2022-11-15T04:47:58;5.30;;;1.63;;
75854;SDS011;64502;59.976;30.316;2022-11-15T04:50:24;3.95;;;2.15;;
75854;SDS011;64502;59.976;30.316;2022-11-15T04:52:50;6.25;;;2.30;;
75854;SDS011;64502;59.976;30.316;2022-11-15T04:55:17;5.82;;;2.20;;
75854;SDS011;64502;59.976;30.316;2022-11-15T04:57:43;6.70;;;2.60;;
75854;SDS011;64502;59.976;30.316;2022-11-15T05:00:09;7.43;;;3.15;;
75854;SDS011;64502;59.976;30.316;2022-11-15T05:02:37;6.13;;;2.67;;
75854;SDS011;64502;59.976;30.316;2022-11-15T05:05:21;6.90;;;2.95;;
75854;SDS011;64502;59.976;30.316;2022-11-15T05:07:47;6.55;;;2.78;;
75854;SDS011;64502;59.976;30.316;2022-11-15T05:10:12;5.72;;;2.75;;
75854;SDS011;64502;59.976;30.316;2022-11-15T05:12:38;5.30;;;2.53;;
75854;SDS011;64502;59.976;30.316;2022-11-15T05:15:04;5.43;;;2.28;;
75854;SDS011;64502;59.976;30.316;2022-11-15T05:17:29;6.38;;;2.85;;
75854;SDS011;64502;59.976;30.316;2022-11-15T05:19:55;4.22;;;1.92;;
75854;SDS011;64502;59.976;30.316;2022-11-15T05:22:21;5.05;;;1.70;;
75854;SDS011;64502;59.976;30.316;2022-11-15T05:24:46;4.85;;;1.10;;
75854;SDS011;64502;59.976;30.316;2022-11-15T05:27:12;3.10;;;1.42;;
75854;SDS011;64502;59.976;30.316;2022-11-15T05:29:37;5.45;;;1.77;;
75854;SDS011;64502;59.976;30.316;2022-11-15T05:32:03;7.00;;;2.33;;
75854;SDS011;64502;59.976;30.316;2022-11-15T05:34:30;4.72;;;1.85;;
75854;SDS011;64502;59.976;30.316;2022-11-15T05:36:56;6.13;;;2.28;;
75854;SDS011;64502;59.976;30.316;2022-11-15T05:39:21;7.72;;;1.85;;
75854;SDS011;64502;59.976;30.316;2022-11-15T05:41:54;5.25;;;2.10;;
75854;SDS011;64502;59.976;30.316;2022-11-15T05:44:26;6.80;;;2.97;;
75854;SDS011;64502;59.976;30.316;2022-11-15T05:46:52;6.00;;;2.60;;
75854;SDS011;64502;59.976;30.316;2022-11-15T05:49:21;7.60;;;3.05;;
75854;SDS011;64502;59.976;30.316;2022-11-15T05:51:50;7.20;;;3.58;;
75854;SDS011;64502;59.976;30.316;2022-11-15T05:54:16;6.70;;;3.25;;
75854;SDS011;64502;59.976;30.316;2022-11-15T05:56:43;10.00;;;3.38;;
75854;SDS011;64502;59.976;30.316;2022-11-15T05:59:09;11.02;;;3.42;;
75854;SDS011;64502;59.976;30.316;2022-11-15T06:01:35;8.75;;;3.65;;
75854;SDS011;64502;59.976;30.316;2022-11-15T06:04:01;7.97;;;3.60;;
75854;SDS011;64502;59.976;30.316;2022-11-15T06:06:27;8.75;;;3.28;;
75854;SDS011;64502;59.976;30.316;2022-11-15T06:08:53;6.75;;;3.28;;
75854;SDS011;64502;59.976;30.316;2022-11-15T06:11:19;9.82;;;4.82;;
75854;SDS011;64502;59.976;30.316;2022-11-15T06:13:45;9.50;;;4.55;;
75854;SDS011;64502;59.976;30.316;2022-11-15T06:16:10;10.85;;;4.57;;
75854;SDS011;64502;59.976;30.316;2022-11-15T06:18:37;9.95;;;4.25;;
75854;SDS011;64502;59.976;30.316;2022-11-15T06:21:03;11.60;;;5.07;;
75854;SDS011;64502;59.976;30.316;2022-11-15T06:23:31;13.63;;;5.47;;
75854;SDS011;64502;59.976;30.316;2022-11-15T06:25:58;13.32;;;5.43;;
75854;SDS011;64502;59.976;30.316;2022-11-15T06:28:24;10.38;;;4.82;;
75854;SDS011;64502;59.976;30.316;2022-11-15T06:30:52;12.50;;;5.85;;
75854;SDS011;64502;59.976;30.316;2022-11-15T06:33:18;10.85;;;5.25;;
75854;SDS011;64502;59.976;30.316;2022-11-15T06:35:43;9.25;;;4.13;;
75854;SDS011;64502;59.976;30.316;2022-11-15T06:38:09;7.65;;;3.55;;
75854;SDS011;64502;59.976;30.316;2022-11-15T06:40:36;8.15;;;3.85;;
75854;SDS011;64502;59.976;30.316;2022-11-15T06:43:03;5.95;;;3.72;;
75854;SDS011;64502;59.976;30.316;2022-11-15T06:45:29;9.15;;;3.65;;
75854;SDS011;64502;59.976;30.316;2022-11-15T06:47:54;8.57;;;4.05;;
75854;SDS011;64502;59.976;30.316;2022-11-15T06:50:20;9.13;;;3.60;;
75854;SDS011;64502;59.976;30.316;2022-11-15T06:52:46;6.05;;;2.97;;
75854;SDS011;64502;59.976;30.316;2022-11-15T06:55:11;6.25;;;2.90;;
75854;SDS011;64502;59.976;30.316;2022-11-15T06:57:37;7.32;;;3.35;;
75854;SDS011;64502;59.976;30.316;2022-11-15T07:00:11;5.50;;;2.70;;
75854;SDS011;64502;59.976;30.316;2022-11-15T07:02:37;5.85;;;2.67;;
75854;SDS011;64502;59.976;30.316;2022-11-15T07:05:03;7.80;;;2.63;;
75854;SDS011;64502;59.976;30.316;2022-11-15T07:07:31;5.28;;;2.40;;
75854;SDS011;64502;59.976;30.316;2022-11-15T07:09:57;10.05;;;2.80;;
75854;SDS011;64502;59.976;30.316;2022-11-15T07:12:22;7.43;;;2.45;;
75854;SDS011;64502;59.976;30.316;2022-11-15T07:14:48;5.70;;;2.35;;
75854;SDS011;64502;59.976;30.316;2022-11-15T07:17:13;6.80;;;2.30;;
75854;SDS011;64502;59.976;30.316;2022-11-15T07:19:39;5.43;;;2.47;;
75854;SDS011;64502;59.976;30.316;2022-11-15T07:22:05;6.43;;;2.63;;
75854;SDS011;64502;59.976;30.316;2022-11-15T07:24:30;8.75;;;3.03;;
75854;SDS011;64502;59.976;30.316;2022-11-15T07:26:56;5.13;;;2.72;;
75854;SDS011;64502;59.976;30.316;2022-11-15T07:29:22;7.68;;;3.28;;
75854;SDS011;64502;59.976;30.316;2022-11-15T07:31:47;6.70;;;3.13;;
75854;SDS011;64502;59.976;30.316;2022-11-15T07:34:24;7.15;;;3.15;;
75854;SDS011;64502;59.976;30.316;2022-11-15T07:36:49;6.32;;;3.60;;
75854;SDS011;64502;59.976;30.316;2022-11-15T07:39:15;6.60;;;3.50;;
75854;SDS011;64502;59.976;30.316;2022-11-15T07:41:40;6.95;;;2.88;;
75854;SDS011;64502;59.976;30.316;2022-11-15T07:44:06;7.63;;;3.25;;
75854;SDS011;64502;59.976;30.316;2022-11-15T07:46:31;10.40;;;3.30;;
75854;SDS011;64502;59.976;30.316;2022-11-15T07:48:57;7.47;;;3.28;;
75854;SDS011;64502;59.976;30.316;2022-11-15T07:51:22;8.02;;;3.20;;
75854;SDS011;64502;59.976;30.316;2022-11-15T07:53:48;7.78;;;3.25;;
75854;SDS011;64502;59.976;30.316;2022-11-15T07:56:13;9.38;;;3.05;;
75854;SDS011;64502;59.976;30.316;2022-11-15T07:58:39;8.45;;;3.00;;
75854;SDS011;64502;59.976;30.316;2022-11-15T08:01:05;7.35;;;2.67;;
75854;SDS011;64502;59.976;30.316;2022-11-15T08:03:32;7.97;;;3.58;;
75854;SDS011;64502;59.976;30.316;2022-11-15T08:05:58;10.65;;;3.42;;
75854;SDS011;64502;59.976;30.316;2022-11-15T08:08:23;11.40;;;3.67;;
75854;SDS011;64502;59.976;30.316;2022-11-15T08:10:49;8.30;;;2.50;;
75854;SDS011;64502;59.976;30.316;2022-11-15T08:13:14;6.85;;;2.70;;
75854;SDS011;64502;59.976;30.316;2022-11-15T08:15:40;9.77;;;3.55;;
75854;SDS011;64502;59.976;30.316;2022-11-15T08:18:09;7.97;;;2.83;;
75854;SDS011;64502;59.976;30.316;2022-11-15T08:20:36;8.48;;;3.03;;
75854;SDS011;64502;59.976;30.316;2022-11-15T08:23:02;7.32;;;3.22;;
75854;SDS011;64502;59.976;30.316;2022-11-15T08:25:30;10.27;;;3.75;;
75854;SDS011;64502;59.976;30.316;2022-11-15T08:27:57;7.70;;;2.90;;
75854;SDS011;64502;59.976;30.316;2022-11-15T08:30:28;8.75;;;3.47;;
75854;SDS011;64502;59.976;30.316;2022-11-15T08:32:56;6.78;;;2.85;;
75854;SDS011;64502;59.976;30.316;2022-11-15T08:35:22;8.25;;;3.67;;
75854;SDS011;64502;59.976;30.316;2022-11-15T08:37:48;6.20;;;3.28;;
75854;SDS011;64502;59.976;30.316;2022-11-15T08:40:15;8.32;;;4.35;;
75854;SDS011;64502;59.976;30.316;2022-11-15T08:42:41;6.88;;;3.47;;
75854;SDS011;64502;59.976;30.316;2022-11-15T08:45:06;7.82;;;3.10;;
75854;SDS011;64502;59.976;30.316;2022-11-15T08:47:33;5.40;;;2.58;;
75854;SDS011;64502;59.976;30.316;2022-11-15T08:49:59;5.60;;;2.30;;
75854;SDS011;64502;59.976;30.316;2022-11-15T08:52:25;5.82;;;2.80;;
75854;SDS011;64502;59.976;30.316;2022-11-15T08:54:50;5.03;;;2.25;;
75854;SDS011;64502;59.976;30.316;2022-11-15T08:57:16;8.50;;;2.85;;
75854;SDS011;64502;59.976;30.316;2022-11-15T08:59:42;9.30;;;2.50;;
75854;SDS011;64502;59.976;30.316;2022-11-15T09:02:11;6.10;;;2.33;;
75854;SDS011;64502;59.976;30.316;2022-11-15T09:04:39;5.22;;;2.08;;
75854;SDS011;64502;59.976;30.316;2022-11-15T09:07:06;6.95;;;2.13;;
75854;SDS011;64502;59.976;30.316;2022-11-15T09:09:32;4.75;;;2.13;;
75854;SDS011;64502;59.976;30.316;2022-11-15T09:11:58;4.97;;;2.40;;
75854;SDS011;64502;59.976;30.316;2022-11-15T09:14:23;4.20;;;2.15;;
75854;SDS011;64502;59.976;30.316;2022-11-15T09:16:48;5.53;;;2.22;;
75854;SDS011;64502;59.976;30.316;2022-11-15T09:19:14;4.97;;;1.92;;
75854;SDS011;64502;59.976;30.316;2022-11-15T09:21:40;5.97;;;1.92;;
75854;SDS011;64502;59.976;30.316;2022-11-15T09:24:05;5.90;;;1.73;;
75854;SDS011;64502;59.976;30.316;2022-11-15T09:26:31;5.07;;;2.00;;
75854;SDS011;64502;59.976;30.316;2022-11-15T09:28:57;4.82;;;2.08;;
75854;SDS011;64502;59.976;30.316;2022-11-15T09:31:22;4.82;;;1.92;;
75854;SDS011;64502;59.976;30.316;2022-11-15T09:33:48;5.75;;;2.28;;
75854;SDS011;64502;59.976;30.316;2022-11-15T09:36:13;5.85;;;2.55;;
75854;SDS011;64502;59.976;30.316;2022-11-15T09:38:38;7.57;;;2.05;;
75854;SDS011;64502;59.976;30.316;2022-11-15T09:49:35;5.78;;;2.05;;
75854;SDS011;64502;59.976;30.316;2022-11-15T09:52:01;3.90;;;1.52;;
75854;SDS011;64502;59.976;30.316;2022-11-15T09:57:09;3.63;;;1.42;;
75854;SDS011;64502;59.976;30.316;2022-11-15T09:59:43;3.85;;;1.73;;
75854;SDS011;64502;59.976;30.316;2022-11-15T10:05:00;3.10;;;1.60;;
75854;SDS011;64502;59.976;30.316;2022-11-15T10:07:28;6.30;;;1.60;;
75854;SDS011;64502;59.976;30.316;2022-11-15T10:12:59;3.05;;;1.20;;
75854;SDS011;64502;59.976;30.316;2022-11-15T10:15:25;3.53;;;1.20;;
75854;SDS011;64502;59.976;30.316;2022-11-15T10:20:46;4.53;;;1.92;;
75854;SDS011;64502;59.976;30.316;2022-11-15T10:23:14;6.53;;;3.05;;
75854;SDS011;64502;59.976;30.316;2022-11-15T10:25:43;4.68;;;1.83;;
75854;SDS011;64502;59.976;30.316;2022-11-15T10:30:56;6.10;;;2.10;;
75854;SDS011;64502;59.976;30.316;2022-11-15T10:33:29;4.15;;;1.92;;
75854;SDS011;64502;59.976;30.316;2022-11-15T10:41:15;3.67;;;1.45;;
75854;SDS011;64502;59.976;30.316;2022-11-15T10:43:43;5.35;;;1.60;;
75854;SDS011;64502;59.976;30.316;2022-11-15T10:46:29;3.75;;;1.33;;
75854;SDS011;64502;59.976;30.316;2022-11-15T10:49:05;3.53;;;1.40;;
75854;SDS011;64502;59.976;30.316;2022-11-15T10:51:42;4.72;;;1.63;;
75854;SDS011;64502;59.976;30.316;2022-11-15T10:57:08;4.10;;;1.48;;
75854;SDS011;64502;59.976;30.316;2022-11-15T10:59:38;2.92;;;1.40;;
75854;SDS011;64502;59.976;30.316;2022-11-15T11:04:56;3.92;;;1.52;;
75854;SDS011;64502;59.976;30.316;2022-11-15T11:07:22;3.85;;;1.23;;
75854;SDS011;64502;59.976;30.316;2022-11-15T11:09:57;3.28;;;1.10;;
75854;SDS011;64502;59.976;30.316;2022-11-15T11:12:29;2.35;;;1.00;;
75854;SDS011;64502;59.976;30.316;2022-11-15T11:14:57;3.10;;;1.02;;
75854;SDS011;64502;59.976;30.316;2022-11-15T11:25:17;2.25;;;1.00;;
75854;SDS011;64502;59.976;30.316;2022-11-15T11:28:00;2.83;;;1.05;;
75854;SDS011;64502;59.976;30.316;2022-11-15T11:33:29;2.83;;;1.20;;
75854;SDS011;64502;59.976;30.316;2022-11-15T11:36:16;3.55;;;1.33;;
75854;SDS011;64502;59.976;30.316;2022-11-15T11:49:51;4.50;;;1.58;;
75854;SDS011;64502;59.976;30.316;2022-11-15T11:52:31;3.47;;;1.60;;
75854;SDS011;64502;59.976;30.316;2022-11-15T11:55:16;2.65;;;1.10;;
75854;SDS011;64502;59.976;30.316;2022-11-15T12:00:27;5.28;;;1.40;;
75854;SDS011;64502;59.976;30.316;2022-11-15T12:11:17;3.17;;;1.40;;
75854;SDS011;64502;59.976;30.316;2022-11-15T12:13:56;3.63;;;1.63;;
75854;SDS011;64502;59.976;30.316;2022-11-15T12:16:31;3.70;;;1.52;;
75854;SDS011;64502;59.976;30.316;2022-11-15T12:19:02;4.15;;;1.33;;
75854;SDS011;64502;59.976;30.316;2022-11-15T12:21:41;4.45;;;1.77;;
75854;SDS011;64502;59.976;30.316;2022-11-15T12:24:25;3.20;;;1.75;;
75854;SDS011;64502;59.976;30.316;2022-11-15T12:26:53;6.35;;;1.50;;
75854;SDS011;64502;59.976;30.316;2022-11-15T12:31:57;2.70;;;1.23;;
75854;SDS011;64502;59.976;30.316;2022-11-15T12:36:53;3.20;;;1.42;;
75854;SDS011;64502;59.976;30.316;2022-11-15T12:39:19;2.70;;;1.17;;
75854;SDS011;64502;59.976;30.316;2022-11-15T13:02:20;3.72;;;1.80;;
75854;SDS011;64502;59.976;30.316;2022-11-15T13:04:48;3.05;;;1.35;;
75854;SDS011;64502;59.976;30.316;2022-11-15T13:09:59;4.22;;;1.35;;
75854;SDS011;64502;59.976;30.316;2022-11-15T13:15:00;4.95;;;1.98;;
75854;SDS011;64502;59.976;30.316;2022-11-15T13:17:53;2.85;;;1.38;;
75854;SDS011;64502;59.976;30.316;2022-11-15T13:20:24;4.38;;;1.40;;
75854;SDS011;64502;59.976;30.316;2022-11-15T13:22:53;3.75;;;1.55;;
75854;SDS011;64502;59.976;30.316;2022-11-15T13:31:13;4.32;;;1.60;;
75854;SDS011;64502;59.976;30.316;2022-11-15T13:33:41;2.85;;;1.17;;
75854;SDS011;64502;59.976;30.316;2022-11-15T13:39:05;5.60;;;1.55;;
75854;SDS011;64502;59.976;30.316;2022-11-15T13:41:45;3.45;;;1.27;;
75854;SDS011;64502;59.976;30.316;2022-11-15T13:44:20;3.95;;;1.27;;
75854;SDS011;64502;59.976;30.316;2022-11-15T13:47:00;3.05;;;1.20;;
75854;SDS011;64502;59.976;30.316;2022-11-15T13:49:31;4.43;;;1.10;;
75854;SDS011;64502;59.976;30.316;2022-11-15T13:51:58;4.15;;;1.02;;
75854;SDS011;64502;59.976;30.316;2022-11-15T13:54:30;3.17;;;1.33;;
75854;SDS011;64502;59.976;30.316;2022-11-15T13:57:05;4.72;;;1.40;;
75854;SDS011;64502;59.976;30.316;2022-11-15T14:02:11;3.58;;;1.42;;
75854;SDS011;64502;59.976;30.316;2022-11-15T14:04:45;5.63;;;1.73;;
75854;SDS011;64502;59.976;30.316;2022-11-15T14:07:17;3.33;;;1.40;;
75854;SDS011;64502;59.976;30.316;2022-11-15T14:09:45;4.43;;;1.50;;
75854;SDS011;64502;59.976;30.316;2022-11-15T14:14:49;5.75;;;1.67;;
75854;SDS011;64502;59.976;30.316;2022-11-15T14:17:20;3.30;;;1.20;;
75854;SDS011;64502;59.976;30.316;2022-11-15T14:25:26;3.60;;;1.15;;
75854;SDS011;64502;59.976;30.316;2022-11-15T14:31:06;4.13;;;1.23;;
75854;SDS011;64502;59.976;30.316;2022-11-15T14:33:37;3.58;;;1.52;;
75854;SDS011;64502;59.976;30.316;2022-11-15T14:36:11;5.00;;;1.38;;
75854;SDS011;64502;59.976;30.316;2022-11-15T14:38:44;4.75;;;1.50;;
75854;SDS011;64502;59.976;30.316;2022-11-15T14:41:15;9.82;;;1.73;;
75854;SDS011;64502;59.976;30.316;2022-11-15T14:43:46;4.90;;;1.63;;
75854;SDS011;64502;59.976;30.316;2022-11-15T14:46:12;4.40;;;1.67;;
75854;SDS011;64502;59.976;30.316;2022-11-15T14:48:38;5.20;;;1.85;;
75854;SDS011;64502;59.976;30.316;2022-11-15T14:51:08;5.38;;;2.17;;
75854;SDS011;64502;59.976;30.316;2022-11-15T14:53:38;5.47;;;2.35;;
75854;SDS011;64502;59.976;30.316;2022-11-15T14:56:04;5.50;;;1.90;;
75854;SDS011;64502;59.976;30.316;2022-11-15T14:58:30;5.13;;;1.75;;
75854;SDS011;64502;59.976;30.316;2022-11-15T15:00:55;5.70;;;1.90;;
75854;SDS011;64502;59.976;30.316;2022-11-15T15:03:21;5.15;;;2.15;;
75854;SDS011;64502;59.976;30.316;2022-11-15T15:05:47;5.20;;;1.60;;
75854;SDS011;64502;59.976;30.316;2022-11-15T15:08:12;4.32;;;1.42;;
75854;SDS011;64502;59.976;30.316;2022-11-15T15:10:41;4.47;;;1.50;;
75854;SDS011;64502;59.976;30.316;2022-11-15T15:13:15;3.95;;;1.20;;
75854;SDS011;64502;59.976;30.316;2022-11-15T15:15:43;3.13;;;1.15;;
75854;SDS011;64502;59.976;30.316;2022-11-15T15:18:09;3.95;;;1.15;;
75854;SDS011;64502;59.976;30.316;2022-11-15T15:20:36;4.03;;;1.50;;
75854;SDS011;64502;59.976;30.316;2022-11-15T15:23:05;4.43;;;1.35;;
75854;SDS011;64502;59.976;30.316;2022-11-15T15:25:33;4.30;;;1.25;;
75854;SDS011;64502;59.976;30.316;2022-11-15T15:28:00;3.47;;;1.30;;
75854;SDS011;64502;59.976;30.316;2022-11-15T15:30:27;2.63;;;1.08;;
75854;SDS011;64502;59.976;30.316;2022-11-15T15:32:54;3.60;;;1.48;;
75854;SDS011;64502;59.976;30.316;2022-11-15T15:35:20;2.40;;;0.82;;
75854;SDS011;64502;59.976;30.316;2022-11-15T15:37:47;3.05;;;1.30;;
75854;SDS011;64502;59.976;30.316;2022-11-15T15:40:21;2.67;;;0.90;;
75854;SDS011;64502;59.976;30.316;2022-11-15T15:42:48;2.88;;;0.93;;
75854;SDS011;64502;59.976;30.316;2022-11-15T15:45:15;3.88;;;1.30;;
75854;SDS011;64502;59.976;30.316;2022-11-15T15:47:41;5.63;;;1.35;;
75854;SDS011;64502;59.976;30.316;2022-11-15T15:52:54;2.67;;;1.10;;
75854;SDS011;64502;59.976;30.316;2022-11-15T15:55:24;6.55;;;2.05;;
75854;SDS011;64502;59.976;30.316;2022-11-15T15:57:50;3.97;;;1.30;;
75854;SDS011;64502;59.976;30.316;2022-11-15T16:00:17;3.40;;;1.02;;
75854;SDS011;64502;59.976;30.316;2022-11-15T16:02:43;3.35;;;1.25;;
75854;SDS011;64502;59.976;30.316;2022-11-15T16:05:09;3.20;;;1.33;;
75854;SDS011;64502;59.976;30.316;2022-11-15T16:07:37;2.85;;;0.90;;
75854;SDS011;64502;59.976;30.316;2022-11-15T16:10:25;6.25;;;1.10;;
75854;SDS011;64502;59.976;30.316;2022-11-15T16:12:53;2.63;;;1.05;;
75854;SDS011;64502;59.976;30.316;2022-11-15T16:15:20;2.42;;;1.33;;
75854;SDS011;64502;59.976;30.316;2022-11-15T16:17:48;3.33;;;1.20;;
75854;SDS011;64502;59.976;30.316;2022-11-15T16:22:56;2.67;;;1.10;;
75854;SDS011;64502;59.976;30.316;2022-11-15T16:25:22;3.55;;;1.17;;
75854;SDS011;64502;59.976;30.316;2022-11-15T16:27:48;6.95;;;2.28;;
75854;SDS011;64502;59.976;30.316;2022-11-15T16:30:17;4.20;;;1.40;;
75854;SDS011;64502;59.976;30.316;2022-11-15T16:32:44;3.75;;;1.15;;
75854;SDS011;64502;59.976;30.316;2022-11-15T16:35:14;3.63;;;1.23;;
75854;SDS011;64502;59.976;30.316;2022-11-15T16:37:40;3.75;;;1.33;;
75854;SDS011;64502;59.976;30.316;2022-11-15T16:40:17;5.90;;;2.15;;
75854;SDS011;64502;59.976;30.316;2022-11-15T16:42:49;5.18;;;1.75;;
75854;SDS011;64502;59.976;30.316;2022-11-15T16:45:15;8.93;;;2.47;;
75854;SDS011;64502;59.976;30.316;2022-11-15T16:47:40;8.48;;;2.28;;
75854;SDS011;64502;59.976;30.316;2022-11-15T16:50:10;5.07;;;1.73;;
75854;SDS011;64502;59.976;30.316;2022-11-15T16:52:53;6.63;;;2.40;;
75854;SDS011;64502;59.976;30.316;2022-11-15T16:55:24;5.30;;;1.65;;
75854;SDS011;64502;59.976;30.316;2022-11-15T16:57:52;3.33;;;1.15;;
75854;SDS011;64502;59.976;30.316;2022-11-15T17:00:18;4.18;;;1.20;;
75854;SDS011;64502;59.976;30.316;2022-11-15T17:02:45;3.58;;;1.10;;
75854;SDS011;64502;59.976;30.316;2022-11-15T17:05:12;5.65;;;1.88;;
75854;SDS011;64502;59.976;30.316;2022-11-15T17:07:39;3.25;;;1.02;;
75854;SDS011;64502;59.976;30.316;2022-11-15T17:10:05;4.82;;;0.98;;
75854;SDS011;64502;59.976;30.316;2022-11-15T17:12:32;3.30;;;0.82;;
75854;SDS011;64502;59.976;30.316;2022-11-15T17:14:58;3.08;;;1.45;;
75854;SDS011;64502;59.976;30.316;2022-11-15T17:17:24;4.00;;;1.10;;
75854;SDS011;64502;59.976;30.316;2022-11-15T17:19:51;4.32;;;1.52;;
75854;SDS011;64502;59.976;30.316;2022-11-15T17:22:17;3.28;;;0.70;;
75854;SDS011;64502;59.976;30.316;2022-11-15T17:24:43;3.25;;;1.23;;
75854;SDS011;64502;59.976;30.316;2022-11-15T17:27:08;2.42;;;0.70;;
75854;SDS011;64502;59.976;30.316;2022-11-15T17:29:34;4.45;;;1.20;;
75854;SDS011;64502;59.976;30.316;2022-11-15T17:31:59;2.72;;;1.30;;
75854;SDS011;64502;59.976;30.316;2022-11-15T17:34:25;3.17;;;1.30;;
75854;SDS011;64502;59.976;30.316;2022-11-15T17:36:50;2.40;;;0.95;;
75854;SDS011;64502;59.976;30.316;2022-11-15T17:39:16;3.00;;;0.95;;
75854;SDS011;64502;59.976;30.316;2022-11-15T17:41:43;3.20;;;1.38;;